createdAt,value
2023-04-30T00:00:13.423Z,1.62
2023-04-30T00:02:41.528Z,1.80
2023-04-30T00:05:09.739Z,1.70
2023-04-30T00:07:37.293Z,1.90
2023-04-30T00:10:05.636Z,2.08
2023-04-30T00:12:33.154Z,2.10
2023-04-30T00:15:01.651Z,1.73
2023-04-30T00:17:29.634Z,1.60
2023-04-30T00:19:57.327Z,1.80
2023-04-30T00:22:24.865Z,2.28
2023-04-30T00:24:52.681Z,1.70
2023-04-30T00:27:20.205Z,2.20
2023-04-30T00:29:47.708Z,2.53
2023-04-30T00:32:15.640Z,1.60
2023-04-30T00:34:43.280Z,2.05
2023-04-30T00:37:10.833Z,2.00
2023-04-30T00:39:38.736Z,1.87
2023-04-30T00:42:06.358Z,1.77
2023-04-30T00:44:33.832Z,1.92
2023-04-30T00:47:01.585Z,1.80
2023-04-30T00:49:29.134Z,1.83
2023-04-30T00:51:56.725Z,2.00
2023-04-30T00:54:25.536Z,1.73
2023-04-30T00:56:53.191Z,2.00
2023-04-30T00:59:21.406Z,1.75
2023-04-30T01:01:49.302Z,1.95
2023-04-30T01:04:17.582Z,2.17
2023-04-30T01:06:46.703Z,1.50
2023-04-30T01:09:14.589Z,2.05
2023-04-30T01:12:13.308Z,2.00
2023-04-30T01:15:08.745Z,2.20
2023-04-30T01:17:45.396Z,2.00
2023-04-30T01:20:13.801Z,1.90
2023-04-30T01:22:55.611Z,1.92
2023-04-30T01:25:26.629Z,1.95
2023-04-30T01:28:06.819Z,2.30
2023-04-30T01:30:35.815Z,2.12
2023-04-30T01:33:04.120Z,2.07
2023-04-30T01:36:00.078Z,2.10
2023-04-30T01:38:57.064Z,2.60
2023-04-30T01:41:34.267Z,2.25
2023-04-30T01:44:31.472Z,2.20
2023-04-30T01:47:24.938Z,2.63
2023-04-30T01:50:25.155Z,2.28
2023-04-30T01:52:54.640Z,2.87
2023-04-30T01:55:30.015Z,2.40
2023-04-30T01:57:59.807Z,2.80
2023-04-30T02:00:30.589Z,2.53
2023-04-30T02:02:59.512Z,2.30
2023-04-30T02:05:27.143Z,3.00
2023-04-30T02:07:54.857Z,3.30
2023-04-30T02:10:25.123Z,2.90
2023-04-30T02:12:53.502Z,2.80
2023-04-30T02:15:21.003Z,3.20
2023-04-30T02:17:48.933Z,3.67
2023-04-30T02:20:16.639Z,3.40
2023-04-30T02:22:44.399Z,3.65
2023-04-30T02:25:15.233Z,3.17
2023-04-30T02:27:42.790Z,3.70
2023-04-30T02:30:10.702Z,3.22
2023-04-30T02:32:38.648Z,3.40
2023-04-30T02:35:06.468Z,3.75
2023-04-30T02:37:33.985Z,3.67
2023-04-30T02:40:01.880Z,3.62
2023-04-30T02:42:29.365Z,4.47
2023-04-30T02:44:56.879Z,3.78
2023-04-30T02:47:24.725Z,4.05
2023-04-30T02:49:52.460Z,3.40
2023-04-30T02:52:20.411Z,4.05
2023-04-30T02:54:48.342Z,4.03
2023-04-30T02:57:15.817Z,4.00
2023-04-30T02:59:46.067Z,4.30
2023-04-30T03:02:14.538Z,3.80
2023-04-30T03:04:42.092Z,4.07
2023-04-30T03:07:09.553Z,4.37
2023-04-30T03:09:37.319Z,4.30
2023-04-30T03:12:05.200Z,4.40
2023-04-30T03:14:32.791Z,4.33
2023-04-30T03:17:00.637Z,4.30
2023-04-30T03:19:29.033Z,4.78
2023-04-30T03:21:56.680Z,4.80
2023-04-30T03:24:25.299Z,4.62
2023-04-30T03:26:52.870Z,4.50
2023-04-30T03:29:20.502Z,4.65
2023-04-30T03:31:48.485Z,5.07
2023-04-30T03:34:16.251Z,4.78
2023-04-30T03:36:43.768Z,4.97
2023-04-30T03:39:11.821Z,5.00
2023-04-30T03:41:39.296Z,5.22
2023-04-30T03:44:08.788Z,5.18
2023-04-30T03:46:36.728Z,4.47
2023-04-30T03:49:04.381Z,4.80
2023-04-30T03:51:32.005Z,4.83
2023-04-30T03:53:59.965Z,5.10
2023-04-30T03:56:27.560Z,5.70
2023-04-30T03:58:55.170Z,5.22
2023-04-30T04:01:23.293Z,5.00
2023-04-30T04:03:51.422Z,4.93
2023-04-30T04:06:19.024Z,5.35
2023-04-30T04:08:47.015Z,5.03
2023-04-30T04:11:15.030Z,4.43
2023-04-30T04:13:42.538Z,4.95
2023-04-30T04:16:10.094Z,4.67
2023-04-30T04:18:39.145Z,4.60
2023-04-30T04:21:07.787Z,4.72
2023-04-30T04:23:35.527Z,4.72
2023-04-30T04:26:03.429Z,4.90
2023-04-30T04:28:31.257Z,4.57
2023-04-30T04:30:59.682Z,5.10
2023-04-30T04:33:28.025Z,4.75
2023-04-30T04:35:57.964Z,5.32
2023-04-30T04:38:26.352Z,5.43
2023-04-30T04:40:55.209Z,5.43
2023-04-30T04:43:22.925Z,5.28
2023-04-30T04:45:50.695Z,5.82
2023-04-30T04:48:18.891Z,5.95
2023-04-30T04:50:46.520Z,6.20
2023-04-30T04:53:14.188Z,5.80
2023-04-30T04:55:41.992Z,6.75
2023-04-30T04:58:09.559Z,6.28
2023-04-30T05:00:37.626Z,5.85
2023-04-30T05:03:05.533Z,6.47
2023-04-30T05:05:33.071Z,6.53
2023-04-30T05:08:00.610Z,6.60
2023-04-30T05:10:28.360Z,7.05
2023-04-30T05:12:55.997Z,6.60
2023-04-30T05:15:23.707Z,6.93
2023-04-30T05:17:51.597Z,7.47
2023-04-30T05:20:19.110Z,6.65
2023-04-30T05:22:46.681Z,8.15
2023-04-30T05:25:14.534Z,7.07
2023-04-30T05:27:42.113Z,8.05
2023-04-30T05:30:10.268Z,7.90
2023-04-30T05:32:38.221Z,7.43
2023-04-30T05:35:06.106Z,8.32
2023-04-30T05:37:33.803Z,8.05
2023-04-30T05:40:01.640Z,7.97
2023-04-30T05:42:29.301Z,7.40
2023-04-30T05:44:56.812Z,7.62
2023-04-30T05:47:24.600Z,8.52
2023-04-30T05:49:52.286Z,8.52
2023-04-30T05:52:19.882Z,9.40
2023-04-30T05:54:52.631Z,8.40
2023-04-30T05:57:21.395Z,8.68
2023-04-30T05:59:49.298Z,8.52
2023-04-30T06:02:16.859Z,8.18
2023-04-30T06:04:44.934Z,8.80
2023-04-30T06:07:13.307Z,8.40
2023-04-30T06:09:40.968Z,8.95
2023-04-30T06:12:08.866Z,9.60
2023-04-30T06:14:36.501Z,10.00
2023-04-30T06:17:04.017Z,8.38
2023-04-30T06:19:31.809Z,8.00
2023-04-30T06:21:59.321Z,8.70
2023-04-30T06:24:27.708Z,9.57
2023-04-30T06:26:55.503Z,8.55
2023-04-30T06:29:24.462Z,7.80
2023-04-30T06:31:52.403Z,7.50
2023-04-30T06:34:21.112Z,7.35
2023-04-30T06:36:48.862Z,8.60
2023-04-30T06:39:17.081Z,7.87
2023-04-30T06:41:44.974Z,7.32
2023-04-30T06:44:13.019Z,7.10
2023-04-30T06:46:41.108Z,6.87
2023-04-30T06:49:09.153Z,6.28
2023-04-30T06:51:36.632Z,7.25
2023-04-30T06:54:04.322Z,6.65
2023-04-30T06:56:32.101Z,6.17
2023-04-30T06:58:59.560Z,6.07
2023-04-30T07:01:27.089Z,6.07
2023-04-30T07:03:55.566Z,6.43
2023-04-30T07:06:23.383Z,6.55
2023-04-30T07:08:50.976Z,6.27
2023-04-30T07:11:18.770Z,5.95
2023-04-30T07:13:46.493Z,5.10
2023-04-30T07:16:14.512Z,4.87
2023-04-30T07:18:42.457Z,4.50
2023-04-30T07:21:10.382Z,4.20
2023-04-30T07:23:39.020Z,3.87
2023-04-30T07:26:06.882Z,4.65
2023-04-30T07:28:34.397Z,4.30
2023-04-30T07:31:02.163Z,3.87
2023-04-30T07:33:30.536Z,3.53
2023-04-30T07:35:59.119Z,2.85
2023-04-30T07:38:26.949Z,2.72
2023-04-30T07:40:54.820Z,2.80
2023-04-30T07:43:22.325Z,2.25
2023-04-30T07:45:50.891Z,2.00
2023-04-30T07:48:18.759Z,2.00
2023-04-30T07:50:49.461Z,2.60
2023-04-30T07:53:18.158Z,2.05
2023-04-30T07:55:46.184Z,2.20
2023-04-30T07:58:13.698Z,2.43
2023-04-30T08:00:41.276Z,2.37
2023-04-30T08:03:09.090Z,2.25
2023-04-30T08:05:36.964Z,1.33
2023-04-30T08:08:04.746Z,1.80
2023-04-30T08:10:32.591Z,1.83
2023-04-30T08:13:00.190Z,1.40
2023-04-30T08:15:28.823Z,1.80
2023-04-30T08:17:57.264Z,1.62
2023-04-30T08:20:24.972Z,1.75
2023-04-30T08:22:52.724Z,1.80
2023-04-30T08:25:20.840Z,1.77
2023-04-30T08:27:48.431Z,1.70
2023-04-30T08:30:16.088Z,1.75
2023-04-30T08:32:43.939Z,2.30
2023-04-30T08:35:11.593Z,1.57
2023-04-30T08:37:39.659Z,2.03
2023-04-30T08:40:09.782Z,1.87
2023-04-30T08:42:42.070Z,1.73
2023-04-30T08:45:12.956Z,2.03
2023-04-30T08:47:41.887Z,1.70
2023-04-30T08:50:09.844Z,1.98
2023-04-30T08:52:38.517Z,1.70
2023-04-30T08:55:08.358Z,1.52
2023-04-30T08:57:37.828Z,2.22
2023-04-30T09:00:07.103Z,1.97
2023-04-30T09:02:35.166Z,1.98
2023-04-30T09:05:03.248Z,1.45
2023-04-30T09:07:33.762Z,1.65
2023-04-30T09:10:01.229Z,2.00
2023-04-30T09:12:29.447Z,1.80
2023-04-30T09:15:06.647Z,1.70
2023-04-30T09:17:35.204Z,1.70
2023-04-30T09:20:11.256Z,1.80
2023-04-30T09:22:41.553Z,1.80
2023-04-30T09:25:09.869Z,1.33
2023-04-30T09:27:37.414Z,1.65
2023-04-30T09:30:05.931Z,1.73
2023-04-30T09:32:33.517Z,1.65
2023-04-30T09:35:01.044Z,1.83
2023-04-30T09:37:38.745Z,1.70
2023-04-30T09:40:07.164Z,1.80
2023-04-30T09:42:35.646Z,1.85
2023-04-30T09:45:05.325Z,1.95
2023-04-30T09:47:33.298Z,2.00
2023-04-30T09:50:01.174Z,1.97
2023-04-30T09:52:28.763Z,2.00
2023-04-30T09:54:56.366Z,2.08
2023-04-30T09:57:24.745Z,1.77
2023-04-30T09:59:53.450Z,2.00
2023-04-30T10:02:24.082Z,1.80
2023-04-30T10:04:56.671Z,1.70
2023-04-30T10:07:31.360Z,2.10
2023-04-30T10:10:07.681Z,1.98
2023-04-30T10:12:50.868Z,1.83
2023-04-30T10:15:28.440Z,1.87
2023-04-30T10:18:05.983Z,2.30
2023-04-30T10:20:39.267Z,1.95
2023-04-30T10:23:08.546Z,2.70
2023-04-30T10:25:39.053Z,3.60
2023-04-30T10:28:08.799Z,2.37
2023-04-30T10:30:36.584Z,4.07
2023-04-30T10:33:23.522Z,2.35
2023-04-30T10:36:02.658Z,3.10
2023-04-30T10:38:32.629Z,2.40
2023-04-30T10:41:03.898Z,1.90
2023-04-30T10:43:31.914Z,1.65
2023-04-30T10:46:00.164Z,2.60
2023-04-30T10:48:30.517Z,1.87
2023-04-30T10:50:59.539Z,2.30
2023-04-30T10:53:31.367Z,2.20
2023-04-30T10:56:09.158Z,1.90
2023-04-30T10:58:40.797Z,2.03
2023-04-30T11:01:17.818Z,2.30
2023-04-30T11:04:10.805Z,2.80
2023-04-30T11:06:56.243Z,2.47
2023-04-30T11:09:44.257Z,2.60
2023-04-30T11:12:14.420Z,2.20
2023-04-30T11:14:44.511Z,2.17
2023-04-30T11:17:14.035Z,2.12
2023-04-30T11:19:53.789Z,2.40
2023-04-30T11:22:25.443Z,1.95
2023-04-30T11:24:59.338Z,2.35
2023-04-30T11:27:28.655Z,2.00
2023-04-30T11:29:59.401Z,2.22
2023-04-30T11:32:34.933Z,2.27
2023-04-30T11:35:04.635Z,2.28
2023-04-30T11:37:33.957Z,2.25
2023-04-30T11:40:04.103Z,1.80
2023-04-30T11:42:34.776Z,2.30
2023-04-30T11:45:05.768Z,2.13
2023-04-30T11:47:45.783Z,2.28
2023-04-30T11:50:18.288Z,2.67
2023-04-30T11:52:50.867Z,2.00
2023-04-30T11:55:21.522Z,2.22
2023-04-30T11:57:52.204Z,1.70
2023-04-30T12:00:21.430Z,2.12
2023-04-30T12:02:50.265Z,1.83
2023-04-30T12:05:20.268Z,1.98
2023-04-30T12:07:50.002Z,2.15
2023-04-30T12:10:21.908Z,1.80
2023-04-30T12:12:52.797Z,2.20
2023-04-30T12:15:32.888Z,2.00
2023-04-30T12:18:11.285Z,1.85
2023-04-30T12:20:40.390Z,2.00
2023-04-30T12:23:08.589Z,2.00
2023-04-30T12:25:45.811Z,1.80
2023-04-30T12:28:13.960Z,2.50
2023-04-30T12:30:43.348Z,2.00
2023-04-30T12:33:11.501Z,2.50
2023-04-30T12:35:43.473Z,2.03
2023-04-30T12:38:11.358Z,2.80
2023-04-30T12:40:39.192Z,2.67
2023-04-30T12:43:08.367Z,2.90
2023-04-30T12:45:51.243Z,2.37
2023-04-30T12:48:21.407Z,1.93
2023-04-30T12:50:56.524Z,1.87
2023-04-30T12:53:24.652Z,1.90
2023-04-30T12:56:31.235Z,1.92
2023-04-30T12:58:59.050Z,2.30
2023-04-30T13:01:26.680Z,2.13
2023-04-30T13:03:54.473Z,1.95
2023-04-30T13:06:23.597Z,2.10
2023-04-30T13:08:58.436Z,2.00
2023-04-30T13:11:27.512Z,2.20
2023-04-30T13:13:55.929Z,2.20
2023-04-30T13:16:25.051Z,2.05
2023-04-30T13:18:53.618Z,2.50
2023-04-30T13:21:21.835Z,2.58
2023-04-30T13:23:53.600Z,2.05
2023-04-30T13:26:26.502Z,2.23
2023-04-30T13:28:54.396Z,2.20
2023-04-30T13:31:22.670Z,2.58
2023-04-30T13:33:50.921Z,2.05
2023-04-30T13:36:18.458Z,2.20
2023-04-30T13:38:46.470Z,1.80
2023-04-30T13:41:14.251Z,1.52
2023-04-30T13:43:42.963Z,1.75
2023-04-30T13:46:11.083Z,1.95
2023-04-30T13:48:38.708Z,2.03
2023-04-30T13:51:06.296Z,1.80
2023-04-30T13:53:34.168Z,2.00
2023-04-30T13:56:03.363Z,2.05
2023-04-30T13:58:30.872Z,2.25
2023-04-30T14:00:58.728Z,2.50
2023-04-30T14:03:27.155Z,1.90
2023-04-30T14:05:55.537Z,1.70
2023-04-30T14:08:23.630Z,2.10
2023-04-30T14:10:51.516Z,1.92
2023-04-30T14:13:18.996Z,2.20
2023-04-30T14:15:47.925Z,2.00
2023-04-30T14:18:15.709Z,1.65
2023-04-30T14:20:43.287Z,1.87
2023-04-30T14:23:10.877Z,1.60
2023-04-30T14:25:38.636Z,2.35
2023-04-30T14:28:06.023Z,1.93
2023-04-30T14:30:33.500Z,1.58
2023-04-30T14:33:01.354Z,1.75
2023-04-30T14:35:29.029Z,1.62
2023-04-30T14:37:56.518Z,1.77
2023-04-30T14:40:24.314Z,1.57
2023-04-30T14:42:51.870Z,1.73
2023-04-30T14:45:19.416Z,1.60
2023-04-30T14:47:47.340Z,1.37
2023-04-30T14:50:14.947Z,1.73
2023-04-30T14:52:42.416Z,1.63
2023-04-30T14:55:10.176Z,1.70
2023-04-30T14:57:37.698Z,1.15
2023-04-30T15:00:06.885Z,1.00
2023-04-30T15:02:34.745Z,1.30
2023-04-30T15:05:05.165Z,1.00
2023-04-30T15:07:32.697Z,1.15
2023-04-30T15:10:00.852Z,1.23
2023-04-30T15:12:28.465Z,0.95
2023-04-30T15:14:56.024Z,1.35
2023-04-30T15:17:24.366Z,1.47
2023-04-30T15:19:51.977Z,1.20
2023-04-30T15:22:19.533Z,1.30
2023-04-30T15:24:47.316Z,1.17
2023-04-30T15:27:14.823Z,1.45
2023-04-30T15:29:42.306Z,1.43
2023-04-30T15:32:10.129Z,1.20
2023-04-30T15:34:37.617Z,1.20
2023-04-30T15:37:05.923Z,0.90
2023-04-30T15:39:35.257Z,1.10
2023-04-30T15:42:03.320Z,1.23
2023-04-30T15:44:30.814Z,1.10
2023-04-30T15:46:58.743Z,1.17
2023-04-30T15:49:26.355Z,0.90
2023-04-30T15:51:53.883Z,1.00
2023-04-30T15:54:23.390Z,1.07
2023-04-30T15:56:51.695Z,1.00
2023-04-30T15:59:19.731Z,1.00
2023-04-30T16:01:47.883Z,1.00
2023-04-30T16:04:15.865Z,1.00
2023-04-30T16:06:43.504Z,0.90
2023-04-30T16:09:12.534Z,1.00
2023-04-30T16:11:40.651Z,1.12
2023-04-30T16:14:08.296Z,0.73
2023-04-30T16:16:36.040Z,1.00
2023-04-30T16:19:03.840Z,0.60
2023-04-30T16:21:34.598Z,0.88
2023-04-30T16:24:03.404Z,0.80
2023-04-30T16:26:31.365Z,1.08
2023-04-30T16:28:58.877Z,1.00
2023-04-30T16:31:26.589Z,1.00
2023-04-30T16:33:54.689Z,0.70
2023-04-30T16:36:22.641Z,1.00
2023-04-30T16:38:50.156Z,0.80
2023-04-30T16:41:17.972Z,0.90
2023-04-30T16:43:45.885Z,1.00
2023-04-30T16:46:15.721Z,0.80
2023-04-30T16:48:44.256Z,0.93
2023-04-30T16:51:11.812Z,1.30
2023-04-30T16:53:39.426Z,1.12
2023-04-30T16:56:07.342Z,0.80
2023-04-30T16:58:34.905Z,0.70
2023-04-30T17:01:02.518Z,1.17
2023-04-30T17:03:30.945Z,0.98
2023-04-30T17:05:58.559Z,1.15
2023-04-30T17:08:26.512Z,1.27
2023-04-30T17:10:55.265Z,0.90
2023-04-30T17:13:23.070Z,1.23
2023-04-30T17:15:50.649Z,0.95
2023-04-30T17:18:18.505Z,0.90
2023-04-30T17:20:46.611Z,0.70
2023-04-30T17:23:14.102Z,1.15
2023-04-30T17:25:43.015Z,1.27
2023-04-30T17:28:10.572Z,0.80
2023-04-30T17:30:38.820Z,1.00
2023-04-30T17:33:06.988Z,0.77
2023-04-30T17:35:34.562Z,1.27
2023-04-30T17:38:02.198Z,1.05
2023-04-30T17:40:31.498Z,0.93
2023-04-30T17:42:59.002Z,1.52
2023-04-30T17:45:26.945Z,1.00
2023-04-30T17:47:54.781Z,0.90
2023-04-30T17:50:22.423Z,1.80
2023-04-30T17:52:50.270Z,0.93
2023-04-30T17:55:18.236Z,1.40
2023-04-30T17:57:45.712Z,0.90
2023-04-30T18:00:14.120Z,1.05
2023-04-30T18:02:42.461Z,1.30
2023-04-30T18:05:11.732Z,1.20
2023-04-30T18:07:39.278Z,1.08
2023-04-30T18:10:08.301Z,1.10
2023-04-30T18:12:36.560Z,1.02
2023-04-30T18:15:05.823Z,1.30
2023-04-30T18:17:35.770Z,1.27
2023-04-30T18:20:05.392Z,1.23
2023-04-30T18:22:33.209Z,1.23
2023-04-30T18:25:00.725Z,0.88
2023-04-30T18:27:29.234Z,1.40
2023-04-30T18:29:57.227Z,1.35
2023-04-30T18:32:25.065Z,1.20
2023-04-30T18:34:52.674Z,1.07
2023-04-30T18:37:21.642Z,1.50
2023-04-30T18:39:51.287Z,1.30
2023-04-30T18:42:18.821Z,1.10
2023-04-30T18:44:46.700Z,1.40
2023-04-30T18:47:14.252Z,1.67
2023-04-30T18:49:43.152Z,1.50
2023-04-30T18:52:10.988Z,1.40
2023-04-30T18:54:38.575Z,1.33
2023-04-30T18:57:06.300Z,1.20
2023-04-30T18:59:34.178Z,1.40
2023-04-30T19:02:01.674Z,1.37
2023-04-30T19:04:29.220Z,1.83
2023-04-30T19:06:57.121Z,1.33
2023-04-30T19:09:24.687Z,1.45
2023-04-30T19:11:53.236Z,1.20
2023-04-30T19:14:21.059Z,1.73
2023-04-30T19:16:48.711Z,1.80
2023-04-30T19:19:16.356Z,1.70
2023-04-30T19:21:44.482Z,1.65
2023-04-30T19:24:12.178Z,1.50
2023-04-30T19:26:42.385Z,1.30
2023-04-30T19:29:10.452Z,1.58
2023-04-30T19:31:38.042Z,1.27
2023-04-30T19:34:05.624Z,1.98
2023-04-30T19:36:33.680Z,1.50
2023-04-30T19:39:01.265Z,1.50
2023-04-30T19:41:29.065Z,1.42
2023-04-30T19:43:56.903Z,1.42
2023-04-30T19:46:24.928Z,1.45
2023-04-30T19:48:52.517Z,1.50
2023-04-30T19:51:20.446Z,1.80
2023-04-30T19:53:48.053Z,1.65
2023-04-30T19:56:15.577Z,1.62
2023-04-30T19:58:44.807Z,1.83
2023-04-30T20:01:12.566Z,1.83
2023-04-30T20:03:42.409Z,1.60
2023-04-30T20:06:10.370Z,1.73
2023-04-30T20:08:37.859Z,1.77
2023-04-30T20:11:05.645Z,2.00
2023-04-30T20:13:33.210Z,1.50
2023-04-30T20:16:00.865Z,1.87
2023-04-30T20:18:28.718Z,1.92
2023-04-30T20:20:59.339Z,1.58
2023-04-30T20:23:26.854Z,1.77
2023-04-30T20:25:55.150Z,1.80
2023-04-30T20:28:22.685Z,2.20
2023-04-30T20:30:50.203Z,1.90
2023-04-30T20:33:18.918Z,1.80
2023-04-30T20:35:47.772Z,1.80
2023-04-30T20:38:19.530Z,1.70
2023-04-30T20:40:47.985Z,1.77
2023-04-30T20:43:16.852Z,2.20
2023-04-30T20:45:45.246Z,1.50
2023-04-30T20:48:13.182Z,1.70
2023-04-30T20:50:41.291Z,1.80
2023-04-30T20:53:11.069Z,2.17
2023-04-30T20:55:39.159Z,2.00
2023-04-30T20:58:08.933Z,1.60
2023-04-30T21:00:36.502Z,2.17
2023-04-30T21:03:04.708Z,2.13
2023-04-30T21:05:32.411Z,1.70
2023-04-30T21:08:01.687Z,2.10
2023-04-30T21:10:36.079Z,2.15
2023-04-30T21:13:05.361Z,2.10
2023-04-30T21:15:35.511Z,2.30
2023-04-30T21:18:03.397Z,2.03
2023-04-30T21:20:31.805Z,2.00
2023-04-30T21:22:59.820Z,1.77
2023-04-30T21:25:27.367Z,1.87
2023-04-30T21:27:55.391Z,1.90
2023-04-30T21:30:25.764Z,1.75
2023-04-30T21:32:58.791Z,2.10
2023-04-30T21:35:30.156Z,2.20
2023-04-30T21:37:57.593Z,2.03
2023-04-30T21:40:25.068Z,2.13
2023-04-30T21:42:52.949Z,1.85
2023-04-30T21:45:20.481Z,2.10
2023-04-30T21:47:48.596Z,2.30
2023-04-30T21:50:17.043Z,2.00
2023-04-30T21:52:44.595Z,2.30
2023-04-30T21:55:12.428Z,2.25
2023-04-30T21:57:40.612Z,2.35
2023-04-30T22:00:14.346Z,2.33
2023-04-30T22:02:49.052Z,2.40
2023-04-30T22:05:18.139Z,2.30
2023-04-30T22:07:46.763Z,2.22
2023-04-30T22:10:17.383Z,2.35
2023-04-30T22:12:47.727Z,2.25
2023-04-30T22:15:15.808Z,2.50
2023-04-30T22:17:43.407Z,2.90
2023-04-30T22:20:11.642Z,2.00
2023-04-30T22:22:39.538Z,2.35
2023-04-30T22:25:09.102Z,2.00
2023-04-30T22:27:37.220Z,2.22
2023-04-30T22:30:06.177Z,2.17
2023-04-30T22:32:34.466Z,2.08
2023-04-30T22:35:03.390Z,2.15
2023-04-30T22:37:31.371Z,2.75
2023-04-30T22:39:59.224Z,2.65
2023-04-30T22:42:27.198Z,2.37
2023-04-30T22:44:54.923Z,2.30
2023-04-30T22:47:22.788Z,2.97
2023-04-30T22:49:50.670Z,2.17
2023-04-30T22:52:18.257Z,2.35
2023-04-30T22:54:47.338Z,2.23
2023-04-30T22:57:15.181Z,2.70
2023-04-30T22:59:42.773Z,3.28
2023-04-30T23:02:10.251Z,2.37
2023-04-30T23:04:38.395Z,2.47
2023-04-30T23:07:06.284Z,2.23
2023-04-30T23:09:33.943Z,2.65
2023-04-30T23:12:02.494Z,2.42
2023-04-30T23:14:30.241Z,2.45
2023-04-30T23:16:57.794Z,2.53
2023-04-30T23:19:25.602Z,2.00
2023-04-30T23:21:53.391Z,2.40
2023-04-30T23:24:20.830Z,2.20
2023-04-30T23:26:48.649Z,2.30
2023-04-30T23:29:16.415Z,2.53
2023-04-30T23:31:43.864Z,2.60
2023-04-30T23:34:12.559Z,2.15
2023-04-30T23:36:40.180Z,2.70
2023-04-30T23:39:07.643Z,2.30
2023-04-30T23:41:35.478Z,2.53
2023-04-30T23:44:02.987Z,2.13
2023-04-30T23:46:30.529Z,2.67
2023-04-30T23:48:58.626Z,2.90
2023-04-30T23:51:26.132Z,2.60
2023-04-30T23:53:53.878Z,2.55
2023-04-30T23:56:22.105Z,2.70
2023-04-30T23:58:49.573Z,2.92
